Time;durP1;ratioP1;P1;durP2;ratioP2;P2;SDS_P1;SDS_P2;PMS_P1;PMS_P2;Temp;Humidity;BMP_temperature;BMP_pressure;BME280_temperature;BME280_humidity;BME280_pressure;Samples;Min_cycle;Max_cycle;Signal;HPM_P1;HPM_P2
2021/08/24 00:00:33;;;;;;;2.70;1.58;;;12.90;99.90;;;;;;4990585;28;20452;-48
2021/08/24 00:02:59;;;;;;;4.82;2.40;;;12.80;99.90;;;;;;4990869;28;20404;-47
2021/08/24 00:05:33;;;;;;;5.32;2.22;;;12.80;99.90;;;;;;4990538;28;20097;-49
2021/08/24 00:07:59;;;;;;;2.28;2.08;;;12.80;99.90;;;;;;4990741;28;20027;-47
2021/08/24 00:10:31;;;;;;;2.53;1.50;;;12.80;99.90;;;;;;4990585;28;20030;-46
2021/08/24 00:12:57;;;;;;;3.88;2.20;;;12.80;99.90;;;;;;4987440;28;20034;-50
2021/08/24 00:15:23;;;;;;;4.38;2.05;;;12.70;99.90;;;;;;4997121;28;20026;-47
2021/08/24 00:17:49;;;;;;;5.80;2.25;;;12.70;99.90;;;;;;4990282;28;20077;-48
2021/08/24 00:20:15;;;;;;;1.98;1.67;;;12.60;99.90;;;;;;4990570;28;20018;-47
2021/08/24 00:22:41;;;;;;;2.40;2.03;;;12.70;99.90;;;;;;4990071;28;20049;-48
2021/08/24 00:25:11;;;;;;;3.85;2.05;;;12.60;99.90;;;;;;4988799;28;20029;-47
2021/08/24 00:27:37;;;;;;;2.85;2.05;;;12.60;99.90;;;;;;4990435;28;20027;-50
2021/08/24 00:30:04;;;;;;;2.92;1.83;;;12.60;99.90;;;;;;4990404;28;20563;-49
2021/08/24 00:32:30;;;;;;;2.28;2.08;;;12.50;99.90;;;;;;4988671;28;20080;-48
2021/08/24 00:34:56;;;;;;;2.00;1.83;;;12.50;99.90;;;;;;4989308;28;20038;-49
2021/08/24 00:37:21;;;;;;;2.20;2.00;;;12.40;99.90;;;;;;4988987;28;20026;-49
2021/08/24 00:39:48;;;;;;;3.30;2.22;;;12.40;99.90;;;;;;4990041;28;20507;-49
2021/08/24 00:42:15;;;;;;;3.10;2.20;;;12.40;99.90;;;;;;4989666;28;20061;-50
2021/08/24 00:44:42;;;;;;;2.38;2.20;;;12.40;99.90;;;;;;4989258;28;20022;-50
2021/08/24 00:47:11;;;;;;;2.90;2.55;;;12.30;99.90;;;;;;4988138;28;20031;-48
2021/08/24 00:49:37;;;;;;;5.00;3.17;;;12.30;99.90;;;;;;4989863;28;20068;-49
2021/08/24 00:52:07;;;;;;;3.97;2.80;;;12.30;99.90;;;;;;4989788;28;20074;-47
2021/08/24 00:54:34;;;;;;;2.92;2.38;;;12.20;99.90;;;;;;4989538;28;20014;-51
2021/08/24 00:57:09;;;;;;;2.70;2.10;;;12.20;99.90;;;;;;4987463;28;20377;-53
2021/08/24 00:59:35;;;;;;;4.65;2.60;;;12.20;99.90;;;;;;4986561;28;20492;-48
2021/08/24 01:02:00;;;;;;;2.42;2.22;;;12.10;99.90;;;;;;4987951;28;20041;-50
2021/08/24 01:04:28;;;;;;;3.25;2.92;;;12.10;99.90;;;;;;4986667;28;20022;-52
2021/08/24 01:07:07;;;;;;;4.47;3.03;;;12.10;99.90;;;;;;4989328;28;20424;-51
2021/08/24 01:09:47;;;;;;;4.68;3.55;;;12.10;99.90;;;;;;4985946;28;20879;-47
2021/08/24 01:12:32;;;;;;;3.50;2.47;;;12.00;99.90;;;;;;4989721;28;20030;-47
2021/08/24 01:15:25;;;;;;;2.88;2.50;;;12.00;99.90;;;;;;4988632;28;20027;-46
2021/08/24 01:17:55;;;;;;;5.32;2.88;;;12.00;99.90;;;;;;4988847;28;20027;-47
2021/08/24 01:20:31;;;;;;;7.88;3.63;;;11.90;99.90;;;;;;4977098;28;20014;-46
2021/08/24 01:23:09;;;;;;;;;;;11.90;99.90;;;;;;4989813;28;20085;-49
2021/08/24 01:26:02;;;;;;;3.58;3.28;;;11.90;99.90;;;;;;4989207;28;19905;-48
2021/08/24 01:28:40;;;;;;;7.35;3.92;;;11.90;99.90;;;;;;4967928;28;20037;-48
2021/08/24 01:31:28;;;;;;;4.15;3.00;;;11.90;99.90;;;;;;4988906;28;20057;-50
2021/08/24 01:34:02;;;;;;;4.70;3.30;;;11.90;99.90;;;;;;4988758;28;20018;-49
2021/08/24 01:36:35;;;;;;;4.93;3.80;;;11.90;99.90;;;;;;4988791;28;20018;-53
2021/08/24 01:39:09;;;;;;;6.30;3.97;;;11.90;99.90;;;;;;4986251;28;20156;-50
2021/08/24 01:41:59;;;;;;;5.43;3.85;;;11.90;99.90;;;;;;4989189;28;20484;-47
2021/08/24 01:44:31;;;;;;;4.93;3.58;;;11.80;99.90;;;;;;4981869;28;20161;-46
2021/08/24 01:47:01;;;;;;;4.68;3.72;;;11.80;99.90;;;;;;4988921;28;20512;-48
2021/08/24 01:49:45;;;;;;;6.32;4.03;;;11.80;99.90;;;;;;4988681;28;20022;-49
2021/08/24 01:52:16;;;;;;;4.10;3.50;;;11.80;99.90;;;;;;4987840;28;20064;-50
2021/08/24 01:54:47;;;;;;;4.88;3.78;;;11.80;99.90;;;;;;4988742;28;20054;-47
2021/08/24 01:57:23;;;;;;;4.28;3.70;;;11.80;99.90;;;;;;4988712;28;20077;-47
2021/08/24 01:59:53;;;;;;;6.97;4.80;;;11.80;99.90;;;;;;4989095;28;20049;-48
2021/08/24 02:02:27;;;;;;;5.60;4.22;;;11.80;99.90;;;;;;4984578;28;20142;-48
2021/08/24 02:05:00;;;;;;;6.38;4.28;;;11.80;99.90;;;;;;4988510;28;20053;-48
2021/08/24 02:07:30;;;;;;;5.05;4.55;;;11.80;99.90;;;;;;4984814;28;20397;-47
2021/08/24 02:10:00;;;;;;;6.72;4.63;;;11.80;99.90;;;;;;4989094;28;20019;-51
2021/08/24 02:12:31;;;;;;;5.15;4.32;;;11.70;99.90;;;;;;4988748;28;20109;-48
2021/08/24 02:14:59;;;;;;;4.53;4.13;;;11.70;99.90;;;;;;4988235;28;20030;-46
2021/08/24 02:17:25;;;;;;;6.05;4.75;;;11.70;99.90;;;;;;4988661;28;20030;-54
2021/08/24 02:20:01;;;;;;;6.95;4.85;;;11.70;99.90;;;;;;4988862;28;20069;-48
2021/08/24 02:22:32;;;;;;;7.68;5.18;;;11.70;99.90;;;;;;4982871;28;20019;-48
2021/08/24 02:25:11;;;;;;;7.20;4.63;;;11.70;99.90;;;;;;4985692;28;20018;-48
2021/08/24 02:27:42;;;;;;;7.07;4.47;;;11.70;99.90;;;;;;4988151;28;20080;-52
2021/08/24 02:30:08;;;;;;;5.70;4.50;;;11.60;99.90;;;;;;4988721;28;20481;-46
2021/08/24 02:32:38;;;;;;;6.43;4.20;;;11.60;99.90;;;;;;4988312;28;20036;-47
2021/08/24 02:35:35;;;;;;;7.15;5.13;;;11.60;99.90;;;;;;4987936;28;20034;-51
2021/08/24 02:38:22;;;;;;;8.25;4.72;;;11.70;99.90;;;;;;4988695;28;20034;-50
2021/08/24 02:41:01;;;;;;;8.10;4.90;;;11.60;99.90;;;;;;4984804;28;20026;-47
2021/08/24 02:43:43;;;;;;;6.93;5.20;;;11.60;99.90;;;;;;4986785;28;20046;-46
2021/08/24 02:46:27;;;;;;;4.40;3.97;;;11.60;99.90;;;;;;4992049;28;20023;-48
2021/08/24 02:49:27;;;;;;;6.70;5.13;;;11.60;99.90;;;;;;4990497;28;20021;-48
2021/08/24 02:51:56;;;;;;;6.30;4.38;;;11.50;99.90;;;;;;4968101;28;20038;-51
2021/08/24 02:54:31;;;;;;;5.78;4.30;;;11.50;99.90;;;;;;4984655;28;20030;-46
2021/08/24 02:56:57;;;;;;;7.30;4.05;;;11.50;99.90;;;;;;4992272;28;20042;-47
2021/08/24 02:59:23;;;;;;;6.35;4.68;;;11.50;99.90;;;;;;4992475;28;20360;-51
2021/08/24 03:01:49;;;;;;;7.03;5.20;;;11.50;99.90;;;;;;4992214;28;20018;-46
2021/08/24 03:04:15;;;;;;;6.70;5.47;;;11.50;99.90;;;;;;4991411;28;20029;-46
2021/08/24 03:06:52;;;;;;;7.40;5.28;;;11.40;99.90;;;;;;4991576;28;20022;-46
2021/08/24 03:09:20;;;;;;;6.60;5.40;;;11.40;99.90;;;;;;4992059;28;20026;-49
2021/08/24 03:12:05;;;;;;;7.65;5.60;;;11.40;99.90;;;;;;4991738;28;20018;-49
2021/08/24 03:14:57;;;;;;;8.18;5.45;;;11.40;99.90;;;;;;4989753;28;20417;-47
2021/08/24 03:17:47;;;;;;;7.03;6.20;;;11.30;99.90;;;;;;4985695;28;20018;-46
2021/08/24 03:20:15;;;;;;;7.25;6.05;;;11.30;99.90;;;;;;4991381;28;20034;-48
2021/08/24 03:22:42;;;;;;;9.02;5.95;;;11.30;99.90;;;;;;4991474;28;20023;-48
2021/08/24 03:25:09;;;;;;;9.23;7.68;;;11.30;99.90;;;;;;4991318;28;20026;-49
2021/08/24 03:27:36;;;;;;;7.78;6.93;;;11.20;99.90;;;;;;4991913;28;20027;-46
2021/08/24 03:30:07;;;;;;;8.73;7.80;;;11.20;99.90;;;;;;4989184;28;20114;-48
2021/08/24 03:32:32;;;;;;;11.73;7.20;;;11.20;99.90;;;;;;4990748;28;20022;-51
2021/08/24 03:34:58;;;;;;;8.13;7.32;;;11.20;99.90;;;;;;4990497;28;20345;-46
2021/08/24 03:37:23;;;;;;;9.82;7.45;;;11.20;99.90;;;;;;4991382;28;20297;-46
2021/08/24 03:39:49;;;;;;;11.43;8.75;;;11.20;99.90;;;;;;4991166;28;20018;-47
2021/08/24 03:42:15;;;;;;;10.18;8.52;;;11.20;99.90;;;;;;4989805;28;20702;-46
2021/08/24 03:44:43;;;;;;;9.98;8.45;;;11.20;99.90;;;;;;4991358;28;20068;-45
2021/08/24 03:47:10;;;;;;;9.95;8.40;;;11.20;99.90;;;;;;4991230;28;20018;-48
2021/08/24 03:49:37;;;;;;;9.65;8.10;;;11.20;99.90;;;;;;4991548;28;20516;-46
2021/08/24 03:52:03;;;;;;;11.48;9.52;;;11.20;99.90;;;;;;4991307;28;20477;-47
2021/08/24 03:54:28;;;;;;;10.27;8.30;;;11.20;99.90;;;;;;4990766;28;20640;-48
2021/08/24 03:56:54;;;;;;;10.18;8.43;;;11.20;99.90;;;;;;4991260;28;20023;-47
2021/08/24 03:59:19;;;;;;;11.20;9.88;;;11.20;99.90;;;;;;4991279;28;20034;-47
2021/08/24 04:01:45;;;;;;;14.93;8.65;;;11.20;99.90;;;;;;4991277;28;20030;-49
2021/08/24 04:04:10;;;;;;;10.07;8.95;;;11.10;99.90;;;;;;4991278;28;20018;-46
2021/08/24 04:06:36;;;;;;;10.65;9.13;;;11.10;99.90;;;;;;4990668;28;20015;-47
2021/08/24 04:09:02;;;;;;;9.57;8.57;;;11.10;99.90;;;;;;4991061;28;20033;-50
2021/08/24 04:11:27;;;;;;;8.45;7.60;;;11.10;99.90;;;;;;4991198;28;20053;-52
2021/08/24 04:13:53;;;;;;;8.98;7.80;;;11.10;99.90;;;;;;4991067;28;20022;-51
2021/08/24 04:16:18;;;;;;;11.13;8.40;;;11.10;99.90;;;;;;4990326;28;20034;-51
2021/08/24 04:18:44;;;;;;;13.07;9.43;;;11.10;99.90;;;;;;4990657;28;20026;-46
2021/08/24 04:21:13;;;;;;;8.93;7.72;;;11.10;99.90;;;;;;4989777;28;20448;-50
2021/08/24 04:23:40;;;;;;;11.63;7.72;;;11.10;99.90;;;;;;4989900;28;20026;-49
2021/08/24 04:26:06;;;;;;;14.35;9.30;;;11.00;99.90;;;;;;4990419;28;20110;-47
2021/08/24 04:28:32;;;;;;;13.45;8.43;;;11.00;99.90;;;;;;4991058;28;20098;-49
2021/08/24 04:30:57;;;;;;;10.65;8.60;;;11.00;99.90;;;;;;4990455;28;20114;-49
2021/08/24 04:33:24;;;;;;;15.93;7.95;;;11.00;99.90;;;;;;4989765;28;20026;-48
2021/08/24 04:35:53;;;;;;;10.25;8.00;;;11.00;99.90;;;;;;4988997;28;20030;-47
2021/08/24 04:38:20;;;;;;;9.15;7.43;;;11.00;99.90;;;;;;4984897;28;20100;-46
2021/08/24 04:40:46;;;;;;;10.10;8.68;;;11.00;99.90;;;;;;4990598;28;20026;-51
2021/08/24 04:43:12;;;;;;;10.07;8.48;;;11.00;99.90;;;;;;4990214;28;20506;-52
2021/08/24 04:45:38;;;;;;;9.48;8.55;;;11.10;99.90;;;;;;4990370;28;20037;-47
2021/08/24 04:48:04;;;;;;;10.38;7.35;;;11.10;99.90;;;;;;4990532;28;20408;-49
2021/08/24 04:50:30;;;;;;;9.60;7.15;;;11.10;99.90;;;;;;4990496;28;20030;-50
2021/08/24 04:52:55;;;;;;;9.75;7.30;;;11.10;99.90;;;;;;4990520;28;20018;-48
2021/08/24 04:55:21;;;;;;;10.90;7.93;;;11.10;99.90;;;;;;4989456;28;20026;-53
2021/08/24 04:57:46;;;;;;;12.68;7.47;;;11.10;99.90;;;;;;4990586;28;20101;-49
2021/08/24 05:00:13;;;;;;;9.60;7.13;;;11.10;99.90;;;;;;4990249;28;20052;-48
2021/08/24 05:02:38;;;;;;;8.80;6.88;;;11.10;99.90;;;;;;4990002;28;20481;-49
2021/08/24 05:05:05;;;;;;;8.35;6.18;;;11.20;99.90;;;;;;4988822;28;20033;-47
2021/08/24 05:07:31;;;;;;;9.18;6.68;;;11.20;99.90;;;;;;4989309;28;20381;-48
2021/08/24 05:09:56;;;;;;;8.48;7.07;;;11.20;99.90;;;;;;4989597;28;20041;-48
2021/08/24 05:12:22;;;;;;;9.77;7.00;;;11.20;99.90;;;;;;4988077;28;20034;-47
2021/08/24 05:14:47;;;;;;;7.57;6.32;;;11.30;99.90;;;;;;4989454;28;20378;-50
2021/08/24 05:17:13;;;;;;;7.72;6.45;;;11.30;99.90;;;;;;4989500;28;20113;-48
2021/08/24 05:19:38;;;;;;;14.73;6.63;;;11.30;99.90;;;;;;4989454;28;20484;-51
2021/08/24 05:22:04;;;;;;;8.80;6.40;;;11.30;99.90;;;;;;4989701;28;20054;-46
2021/08/24 05:24:30;;;;;;;8.00;6.28;;;11.40;99.90;;;;;;4988740;28;20056;-51
2021/08/24 05:26:55;;;;;;;7.88;6.20;;;11.40;99.90;;;;;;4989696;28;20397;-48
2021/08/24 05:29:21;;;;;;;9.55;6.63;;;11.50;99.90;;;;;;4989183;28;20072;-50
2021/08/24 05:31:46;;;;;;;11.00;6.20;;;11.50;99.90;;;;;;4988847;28;20042;-49
2021/08/24 05:36:37;;;;;;;7.30;5.72;;;11.60;99.90;;;;;;5005443;23;20070;-53
2021/08/24 05:39:03;;;;;;;8.80;6.05;;;11.60;99.90;;;;;;4988626;28;20062;-54
2021/08/24 05:41:30;;;;;;;6.70;5.55;;;11.70;99.90;;;;;;4989057;28;20050;-53
2021/08/24 05:43:55;;;;;;;9.15;5.18;;;11.70;99.90;;;;;;4988492;28;20014;-53
2021/08/24 05:46:21;;;;;;;8.02;4.93;;;11.80;99.90;;;;;;4988190;28;20436;-50
2021/08/24 05:48:46;;;;;;;8.02;5.60;;;11.80;99.90;;;;;;4988483;28;20026;-52
2021/08/24 05:51:17;;;;;;;10.07;5.18;;;11.90;99.90;;;;;;4988805;28;20046;-53
2021/08/24 05:53:44;;;;;;;8.60;5.72;;;12.00;99.90;;;;;;4988895;28;20117;-52
2021/08/24 05:56:12;;;;;;;8.95;5.18;;;12.10;99.90;;;;;;4988598;28;20080;-55
2021/08/24 05:58:39;;;;;;;7.75;5.22;;;12.10;99.90;;;;;;4988521;28;20440;-50
2021/08/24 06:01:06;;;;;;;8.80;5.25;;;12.20;99.90;;;;;;4988541;28;20085;-52
2021/08/24 06:03:32;;;;;;;7.65;5.25;;;12.30;99.90;;;;;;4988682;28;20022;-50
2021/08/24 06:05:58;;;;;;;8.13;5.22;;;12.40;99.90;;;;;;4988260;28;20489;-52
2021/08/24 06:08:25;;;;;;;6.47;5.03;;;12.50;99.90;;;;;;4988746;28;20027;-53
2021/08/24 06:10:50;;;;;;;7.40;5.60;;;12.60;99.90;;;;;;4987131;28;20204;-51
2021/08/24 06:13:16;;;;;;;9.55;5.25;;;12.70;99.90;;;;;;4989108;28;20651;-50
2021/08/24 06:15:41;;;;;;;8.27;5.22;;;12.80;99.90;;;;;;4988573;28;20432;-53
2021/08/24 06:18:07;;;;;;;6.30;4.75;;;12.90;99.90;;;;;;4992790;28;20031;-52
2021/08/24 06:20:33;;;;;;;6.75;4.88;;;13.00;99.90;;;;;;4992960;28;20083;-52
2021/08/24 06:22:58;;;;;;;7.88;5.28;;;13.10;99.90;;;;;;4992335;28;20396;-51
2021/08/24 06:25:27;;;;;;;6.65;4.50;;;13.20;99.90;;;;;;4992398;28;20027;-54
2021/08/24 06:27:53;;;;;;;5.20;3.80;;;13.30;99.90;;;;;;4992634;28;20041;-53
2021/08/24 06:30:19;;;;;;;5.18;3.75;;;13.40;99.90;;;;;;4992453;28;20026;-51
2021/08/24 06:32:52;;;;;;;4.60;3.33;;;13.50;99.90;;;;;;4992179;28;20022;-50
2021/08/24 06:35:21;;;;;;;5.10;3.25;;;13.70;99.90;;;;;;4991800;28;20085;-52
2021/08/24 06:37:46;;;;;;;4.38;2.95;;;13.80;99.90;;;;;;4992550;28;20041;-51
2021/08/24 06:40:15;;;;;;;3.75;2.35;;;13.90;99.90;;;;;;4991955;28;20030;-53
2021/08/24 06:42:42;;;;;;;4.22;2.80;;;14.00;99.90;;;;;;4992505;28;20069;-51
2021/08/24 06:45:12;;;;;;;4.97;3.00;;;14.20;99.90;;;;;;4991991;28;20114;-50
2021/08/24 06:47:37;;;;;;;8.80;2.60;;;14.30;99.90;;;;;;4992124;28;20024;-55
2021/08/24 06:50:03;;;;;;;3.55;2.75;;;14.50;99.90;;;;;;4992515;28;20491;-53
2021/08/24 06:52:29;;;;;;;6.35;2.42;;;14.60;99.90;;;;;;4992230;28;20554;-53
2021/08/24 06:54:54;;;;;;;3.42;3.10;;;14.80;99.90;;;;;;4990774;28;20108;-54
2021/08/24 06:57:20;;;;;;;4.18;2.35;;;14.90;99.90;;;;;;4991887;28;20030;-50
2021/08/24 06:59:45;;;;;;;2.78;2.40;;;15.00;99.90;;;;;;4991637;28;20050;-54
2021/08/24 07:02:11;;;;;;;2.72;2.40;;;15.20;99.90;;;;;;4987028;28;20011;-52
2021/08/24 07:04:37;;;;;;;3.33;2.17;;;15.30;99.90;;;;;;4980404;28;20131;-52
2021/08/24 07:07:02;;;;;;;3.58;2.65;;;15.40;99.90;;;;;;4991443;28;20033;-55
2021/08/24 07:09:28;;;;;;;2.90;2.45;;;15.60;99.90;;;;;;4983679;28;20381;-51
2021/08/24 07:11:53;;;;;;;3.45;2.75;;;15.60;99.90;;;;;;4975607;28;20030;-51
2021/08/24 07:14:19;;;;;;;3.72;2.72;;;15.80;99.90;;;;;;4978646;28;20109;-52
2021/08/24 07:16:44;;;;;;;5.85;2.92;;;15.80;99.90;;;;;;4975102;28;20038;-54
2021/08/24 07:19:11;;;;;;;3.22;2.60;;;15.90;99.90;;;;;;4987380;28;20026;-51
2021/08/24 07:21:37;;;;;;;4.85;2.60;;;16.00;99.90;;;;;;4990140;28;20049;-53
2021/08/24 07:24:03;;;;;;;3.67;2.95;;;16.10;99.90;;;;;;4989792;28;20061;-51
2021/08/24 07:26:29;;;;;;;4.47;2.88;;;16.20;99.90;;;;;;4989573;28;20547;-53
2021/08/24 07:28:54;;;;;;;4.50;2.88;;;16.40;99.90;;;;;;4988732;28;20026;-51
2021/08/24 07:31:20;;;;;;;2.90;2.60;;;16.60;99.90;;;;;;4988071;28;20861;-50
2021/08/24 07:33:46;;;;;;;3.80;2.53;;;16.80;99.90;;;;;;4989249;28;20472;-54
2021/08/24 07:36:12;;;;;;;2.80;2.28;;;17.00;99.90;;;;;;4989920;28;20429;-51
2021/08/24 07:38:38;;;;;;;5.72;2.80;;;17.20;99.90;;;;;;4990159;28;20030;-54
2021/08/24 07:41:04;;;;;;;4.90;2.33;;;17.30;99.90;;;;;;4990728;28;20054;-51
2021/08/24 07:43:31;;;;;;;4.18;2.65;;;17.40;99.90;;;;;;4990754;28;20023;-53
2021/08/24 07:45:57;;;;;;;3.17;2.20;;;17.40;99.90;;;;;;4990476;28;20070;-52
2021/08/24 07:48:24;;;;;;;5.43;2.13;;;17.60;99.90;;;;;;4990771;28;20097;-54
2021/08/24 07:50:50;;;;;;;3.80;2.45;;;17.80;99.90;;;;;;4990300;28;20027;-55
2021/08/24 07:53:16;;;;;;;5.57;2.42;;;17.90;99.90;;;;;;4990894;28;20105;-51
2021/08/24 07:55:42;;;;;;;6.65;2.80;;;18.00;99.90;;;;;;4990645;28;20109;-54
2021/08/24 07:58:08;;;;;;;2.33;1.80;;;18.20;99.90;;;;;;4990962;28;20026;-51
2021/08/24 08:00:33;;;;;;;4.63;2.00;;;18.40;99.90;;;;;;4989117;28;20555;-55
2021/08/24 08:02:59;;;;;;;2.88;1.77;;;18.40;99.90;;;;;;4990685;28;20053;-55
2021/08/24 08:05:25;;;;;;;2.88;2.05;;;18.60;99.90;;;;;;4990130;28;20251;-54
2021/08/24 08:07:50;;;;;;;4.72;2.70;;;18.90;99.90;;;;;;4990467;28;20049;-52
2021/08/24 08:10:16;;;;;;;2.47;1.95;;;19.10;99.90;;;;;;4990548;28;20042;-54
2021/08/24 08:12:41;;;;;;;3.47;2.17;;;19.30;99.90;;;;;;4990900;28;20018;-51
2021/08/24 08:15:11;;;;;;;2.53;2.10;;;19.30;99.90;;;;;;4989871;28;20488;-55
2021/08/24 08:17:37;;;;;;;2.67;2.13;;;19.30;99.90;;;;;;4990109;28;20105;-53
2021/08/24 08:20:04;;;;;;;3.97;2.17;;;19.40;99.90;;;;;;4989815;28;20125;-52
2021/08/24 08:22:30;;;;;;;2.28;1.75;;;19.50;99.90;;;;;;4990077;28;20022;-55
2021/08/24 08:24:56;;;;;;;2.28;1.60;;;19.60;99.90;;;;;;4989879;28;20559;-56
2021/08/24 08:27:21;;;;;;;1.95;1.63;;;19.70;99.90;;;;;;4989930;28;20661;-54
2021/08/24 08:29:47;;;;;;;5.82;2.47;;;19.90;99.90;;;;;;4988719;28;20122;-56
2021/08/24 08:32:19;;;;;;;3.45;2.20;;;20.00;99.90;;;;;;4990058;28;20031;-52
2021/08/24 08:34:45;;;;;;;3.45;2.10;;;20.00;99.90;;;;;;4989239;28;20054;-55
2021/08/24 08:37:11;;;;;;;3.70;2.13;;;20.10;99.90;;;;;;4989683;28;20084;-54
2021/08/24 08:39:36;;;;;;;3.60;2.22;;;20.20;99.90;;;;;;4984037;28;20702;-52
2021/08/24 08:42:10;;;;;;;3.13;1.88;;;20.40;99.90;;;;;;4975253;28;20034;-52
2021/08/24 08:45:05;;;;;;;3.72;2.15;;;20.30;99.90;;;;;;4973380;28;20027;-52
2021/08/24 08:47:53;;;;;;;3.88;2.47;;;20.50;99.90;;;;;;4974068;28;20026;-57
2021/08/24 08:50:30;;;;;;;3.90;2.00;;;20.60;99.90;;;;;;4986587;28;20022;-54
2021/08/24 08:53:27;;;;;;;2.53;1.90;;;20.60;99.90;;;;;;4989267;28;20037;-53
2021/08/24 08:55:55;;;;;;;;;;;20.60;99.90;;;;;;5000761;28;20018;-52
2021/08/24 08:58:51;;;;;;;2.92;1.88;;;20.80;99.90;;;;;;4983945;28;19906;-52
2021/08/24 09:01:30;;;;;;;4.43;1.73;;;21.00;99.90;;;;;;5001024;28;20484;-55
2021/08/24 09:04:27;;;;;;;2.25;1.50;;;21.00;99.90;;;;;;4988851;28;20105;-53
2021/08/24 09:07:00;;;;;;;2.00;1.73;;;21.10;99.90;;;;;;4989224;28;20117;-54
2021/08/24 09:09:27;;;;;;;3.67;1.58;;;21.20;99.90;;;;;;4987688;28;20318;-52
2021/08/24 09:11:53;;;;;;;4.00;1.67;;;21.30;99.90;;;;;;4989415;28;20420;-52
2021/08/24 09:14:50;;;;;;;3.38;2.13;;;21.40;99.90;;;;;;4987301;28;20175;-53
2021/08/24 09:17:30;;;;;;;2.45;1.77;;;21.50;99.90;;;;;;4988318;28;20062;-53
2021/08/24 09:19:59;;;;;;;1.90;1.60;;;21.60;99.60;;;;;;4986166;28;20100;-55
2021/08/24 09:22:25;;;;;;;2.67;1.95;;;21.50;99.90;;;;;;4989399;28;20385;-53
2021/08/24 09:24:51;;;;;;;2.22;1.60;;;21.50;99.90;;;;;;4989300;28;20460;-54
2021/08/24 09:27:57;;;;;;;4.35;2.38;;;21.50;99.90;;;;;;4989531;28;20022;-52
2021/08/24 09:30:23;;;;;;;3.42;2.35;;;21.70;99.90;;;;;;4980075;28;20097;-56
2021/08/24 09:32:49;;;;;;;4.88;2.22;;;21.70;99.90;;;;;;4988863;28;20045;-52
2021/08/24 09:35:15;;;;;;;3.53;2.10;;;21.80;99.90;;;;;;4988928;28;20046;-57
2021/08/24 09:37:41;;;;;;;2.58;2.38;;;21.90;99.20;;;;;;4989166;28;20040;-55
2021/08/24 09:40:10;;;;;;;3.58;2.38;;;21.90;98.30;;;;;;4988925;28;20118;-52
2021/08/24 09:42:40;;;;;;;4.63;2.28;;;21.80;97.90;;;;;;4982856;28;20022;-54
2021/08/24 09:45:28;;;;;;;2.55;2.28;;;21.80;98.40;;;;;;4972813;28;20022;-53
2021/08/24 09:47:59;;;;;;;4.15;2.08;;;22.00;98.10;;;;;;4971167;28;20105;-53
2021/08/24 09:50:37;;;;;;;2.35;1.85;;;22.10;97.90;;;;;;4982593;28;20106;-56
2021/08/24 09:53:04;;;;;;;3.60;1.80;;;22.00;95.90;;;;;;4974610;28;20034;-53
2021/08/24 09:55:35;;;;;;;2.97;1.77;;;21.90;96.50;;;;;;4971546;28;20120;-52
2021/08/24 09:58:04;;;;;;;2.70;1.80;;;21.80;95.40;;;;;;4984284;28;20413;-56
2021/08/24 10:00:52;;;;;;;3.30;2.20;;;21.80;96.40;;;;;;4977365;28;20556;-53
2021/08/24 10:03:35;;;;;;;2.65;1.95;;;21.60;96.10;;;;;;4981311;28;20033;-54
2021/08/24 10:06:23;;;;;;;2.90;1.65;;;21.60;96.10;;;;;;4988129;28;20137;-54
2021/08/24 10:08:55;;;;;;;3.53;1.70;;;21.50;96.50;;;;;;4983491;28;20022;-54
2021/08/24 10:11:32;;;;;;;3.65;1.98;;;21.50;96.50;;;;;;4989125;28;20026;-52
2021/08/24 10:14:09;;;;;;;4.35;2.40;;;21.40;96.80;;;;;;4989034;28;20022;-51
2021/08/24 10:16:37;;;;;;;2.60;2.40;;;21.40;97.60;;;;;;4984477;28;20073;-53
2021/08/24 10:19:06;;;;;;;2.28;2.00;;;21.40;98.10;;;;;;4988667;28;20026;-56
2021/08/24 10:21:41;;;;;;;2.83;2.40;;;21.50;98.50;;;;;;4983660;28;20023;-53
2021/08/24 10:24:10;;;;;;;2.40;1.67;;;21.60;97.00;;;;;;4989110;28;20106;-53
2021/08/24 10:26:37;;;;;;;3.75;2.10;;;21.60;98.00;;;;;;4988236;28;20112;-54
2021/08/24 10:29:09;;;;;;;5.07;2.30;;;21.60;97.60;;;;;;4988749;28;20019;-52
2021/08/24 10:31:38;;;;;;;2.13;1.80;;;21.30;96.40;;;;;;4986758;28;20026;-51
2021/08/24 10:34:26;;;;;;;2.45;1.60;;;21.10;96.40;;;;;;4988769;28;20392;-51
2021/08/24 10:36:52;;;;;;;3.03;2.20;;;20.90;97.00;;;;;;4988165;28;20169;-51
2021/08/24 10:39:24;;;;;;;3.42;2.20;;;20.80;95.60;;;;;;4988787;28;20023;-51
2021/08/24 10:42:16;;;;;;;3.10;2.08;;;20.70;96.90;;;;;;4988277;28;20476;-56
2021/08/24 10:44:53;;;;;;;3.65;1.98;;;20.90;96.50;;;;;;4980905;28;20463;-53
2021/08/24 10:47:30;;;;;;;2.85;1.92;;;21.10;96.90;;;;;;4988628;28;20015;-54
2021/08/24 10:49:59;;;;;;;3.80;1.63;;;21.20;96.30;;;;;;4988535;28;20492;-56
2021/08/24 10:52:45;;;;;;;3.60;1.80;;;21.30;96.20;;;;;;4988619;28;20114;-56
2021/08/24 10:55:20;;;;;;;2.75;1.88;;;21.40;96.50;;;;;;4988221;28;20098;-53
2021/08/24 10:57:50;;;;;;;2.45;1.98;;;21.40;94.90;;;;;;4983795;28;20039;-52
2021/08/24 11:00:22;;;;;;;2.90;2.05;;;21.50;93.60;;;;;;4988587;28;20161;-53
2021/08/24 11:03:05;;;;;;;4.20;2.20;;;21.50;95.10;;;;;;4988690;28;20034;-53
2021/08/24 11:05:55;;;;;;;3.38;2.00;;;21.50;93.40;;;;;;4991014;28;20461;-52
2021/08/24 11:08:44;;;;;;;5.50;2.13;;;21.60;93.50;;;;;;4990630;28;20019;-51
2021/08/24 11:11:10;;;;;;;3.10;1.90;;;21.60;94.50;;;;;;4990373;28;20102;-53
2021/08/24 11:13:59;;;;;;;2.53;2.10;;;21.60;94.00;;;;;;4991521;28;20097;-54
2021/08/24 11:16:44;;;;;;;2.30;1.95;;;21.60;93.80;;;;;;4979514;28;20031;-56
2021/08/24 11:19:24;;;;;;;2.33;1.70;;;21.60;93.00;;;;;;4976646;28;20396;-53
2021/08/24 11:21:58;;;;;;;2.58;2.00;;;21.60;93.50;;;;;;4991651;28;20109;-52
2021/08/24 11:24:32;;;;;;;2.42;1.50;;;21.50;93.60;;;;;;4991022;28;20531;-55
2021/08/24 11:27:10;;;;;;;3.25;1.83;;;21.50;94.10;;;;;;4991170;28;20073;-54
2021/08/24 11:29:51;;;;;;;3.72;1.88;;;21.60;94.20;;;;;;4987465;28;20236;-55
2021/08/24 11:32:24;;;;;;;2.08;1.67;;;21.80;93.80;;;;;;4989786;28;20023;-54
2021/08/24 11:35:03;;;;;;;3.00;2.10;;;21.80;94.00;;;;;;4991391;28;20122;-54
2021/08/24 11:37:33;;;;;;;3.00;1.85;;;21.90;93.70;;;;;;5012636;23;20041;-51
2021/08/24 11:40:11;;;;;;;2.30;1.55;;;21.90;92.70;;;;;;4990973;28;20125;-55
2021/08/24 11:42:38;;;;;;;2.08;1.42;;;21.90;95.20;;;;;;4985694;28;20077;-54
2021/08/24 11:45:09;;;;;;;2.25;2.05;;;22.00;93.20;;;;;;4990677;28;20022;-54
2021/08/24 11:47:55;;;;;;;3.25;2.17;;;22.10;93.60;;;;;;4984705;28;20026;-50
2021/08/24 11:50:27;;;;;;;3.03;1.90;;;22.10;92.00;;;;;;4986264;28;20022;-51
2021/08/24 11:53:05;;;;;;;4.72;2.55;;;22.00;92.10;;;;;;4991354;28;20084;-47
2021/08/24 11:55:36;;;;;;;3.33;2.28;;;21.90;91.90;;;;;;4977735;28;20047;-52
2021/08/24 11:58:25;;;;;;;2.67;1.75;;;21.70;92.50;;;;;;4987540;28;20034;-52
2021/08/24 12:00:56;;;;;;;3.28;1.67;;;21.70;91.30;;;;;;4988900;28;20022;-52
2021/08/24 12:03:23;;;;;;;1.85;1.73;;;21.70;92.00;;;;;;4988869;28;20026;-54
2021/08/24 12:05:53;;;;;;;3.33;1.75;;;21.80;92.70;;;;;;4987254;28;20072;-51
2021/08/24 12:08:24;;;;;;;2.20;2.00;;;21.80;91.70;;;;;;4988570;28;20030;-50
2021/08/24 12:10:49;;;;;;;2.63;1.70;;;21.70;91.00;;;;;;4987653;28;20568;-52
2021/08/24 12:13:27;;;;;;;3.03;1.98;;;21.80;92.70;;;;;;4989078;28;20165;-54
2021/08/24 12:16:19;;;;;;;3.22;1.85;;;21.90;92.10;;;;;;4989400;28;20026;-51
2021/08/24 12:18:45;;;;;;;3.55;1.70;;;21.90;91.60;;;;;;4984583;28;20388;-50
2021/08/24 12:21:28;;;;;;;2.55;2.00;;;22.00;92.40;;;;;;4990393;28;20109;-51
2021/08/24 12:23:56;;;;;;;3.25;1.73;;;22.20;91.80;;;;;;4986569;28;20025;-49
2021/08/24 12:26:26;;;;;;;2.20;1.67;;;22.10;91.90;;;;;;4988081;28;20106;-53
2021/08/24 12:28:55;;;;;;;2.92;1.70;;;22.10;90.40;;;;;;4986787;28;20165;-50
2021/08/24 12:31:38;;;;;;;2.47;1.83;;;21.90;92.40;;;;;;4987253;28;20393;-50
2021/08/24 12:34:35;;;;;;;2.05;1.73;;;21.70;90.30;;;;;;4987746;28;20026;-47
2021/08/24 12:37:19;;;;;;;3.00;1.95;;;21.50;90.10;;;;;;4989514;28;20061;-53
2021/08/24 12:39:44;;;;;;;2.38;1.95;;;21.50;90.70;;;;;;4989929;28;20027;-49
2021/08/24 12:42:29;;;;;;;3.00;1.67;;;21.50;90.40;;;;;;4990038;28;20045;-49
2021/08/24 12:45:00;;;;;;;2.50;1.88;;;21.60;91.20;;;;;;4990247;28;20535;-48
2021/08/24 12:47:45;;;;;;;2.45;1.70;;;21.80;90.40;;;;;;4988999;28;20029;-51
2021/08/24 12:50:10;;;;;;;2.35;1.92;;;21.90;88.40;;;;;;4989444;28;20556;-53
2021/08/24 12:52:41;;;;;;;4.88;2.00;;;22.00;88.10;;;;;;4989713;28;20026;-50
2021/08/24 12:55:39;;;;;;;2.42;1.63;;;22.00;90.70;;;;;;4989340;28;20268;-52
2021/08/24 12:58:22;;;;;;;2.47;1.83;;;22.10;91.20;;;;;;4987498;28;20105;-50
2021/08/24 13:01:15;;;;;;;3.00;2.13;;;22.20;90.90;;;;;;4988463;28;20022;-52
2021/08/24 13:04:07;;;;;;;2.15;1.90;;;22.40;91.00;;;;;;4984315;28;20118;-55
2021/08/24 13:06:36;;;;;;;2.08;1.60;;;22.50;90.00;;;;;;4982845;28;20019;-47
2021/08/24 13:09:38;;;;;;;3.10;2.10;;;22.70;88.80;;;;;;4989842;28;20027;-52